sensor_id;sensor_type;location;lat;lon;timestamp;P1;durP1;ratioP1;P2;durP2;ratioP2
73980;SDS011;62348;51.412;5.436;2023-02-28T00:00:09;9.38;;;6.78;;
73980;SDS011;62348;51.412;5.436;2023-02-28T00:02:37;11.27;;;6.55;;
73980;SDS011;62348;51.412;5.436;2023-02-28T00:05:04;8.10;;;6.10;;
73980;SDS011;62348;51.412;5.436;2023-02-28T00:07:30;10.75;;;6.93;;
73980;SDS011;62348;51.412;5.436;2023-02-28T00:09:56;9.38;;;6.65;;
73980;SDS011;62348;51.412;5.436;2023-02-28T00:12:22;7.80;;;6.43;;
73980;SDS011;62348;51.412;5.436;2023-02-28T00:14:47;7.70;;;6.82;;
73980;SDS011;62348;51.412;5.436;2023-02-28T00:17:13;9.32;;;6.57;;
73980;SDS011;62348;51.412;5.436;2023-02-28T00:19:39;9.27;;;6.95;;
73980;SDS011;62348;51.412;5.436;2023-02-28T00:22:04;10.95;;;7.35;;
73980;SDS011;62348;51.412;5.436;2023-02-28T00:24:30;14.43;;;8.05;;
73980;SDS011;62348;51.412;5.436;2023-02-28T00:26:56;8.38;;;7.05;;
73980;SDS011;62348;51.412;5.436;2023-02-28T00:29:21;9.52;;;7.13;;
73980;SDS011;62348;51.412;5.436;2023-02-28T00:31:46;11.38;;;7.38;;
73980;SDS011;62348;51.412;5.436;2023-02-28T00:34:12;10.60;;;8.13;;
73980;SDS011;62348;51.412;5.436;2023-02-28T00:36:37;9.75;;;7.00;;
73980;SDS011;62348;51.412;5.436;2023-02-28T00:39:03;11.60;;;7.72;;
73980;SDS011;62348;51.412;5.436;2023-02-28T00:41:28;8.70;;;7.57;;
73980;SDS011;62348;51.412;5.436;2023-02-28T00:43:53;10.95;;;8.20;;
73980;SDS011;62348;51.412;5.436;2023-02-28T00:46:19;15.13;;;7.88;;
73980;SDS011;62348;51.412;5.436;2023-02-28T00:48:44;14.05;;;8.30;;
73980;SDS011;62348;51.412;5.436;2023-02-28T00:51:10;9.88;;;7.07;;
73980;SDS011;62348;51.412;5.436;2023-02-28T00:53:35;10.38;;;8.05;;
73980;SDS011;62348;51.412;5.436;2023-02-28T00:56:00;11.57;;;7.63;;
73980;SDS011;62348;51.412;5.436;2023-02-28T00:58:26;10.48;;;7.22;;
73980;SDS011;62348;51.412;5.436;2023-02-28T01:00:52;8.23;;;7.15;;
73980;SDS011;62348;51.412;5.436;2023-02-28T01:03:18;11.85;;;7.72;;
73980;SDS011;62348;51.412;5.436;2023-02-28T01:05:45;8.98;;;7.60;;
73980;SDS011;62348;51.412;5.436;2023-02-28T01:08:11;10.20;;;7.65;;
73980;SDS011;62348;51.412;5.436;2023-02-28T01:10:37;9.60;;;7.38;;
73980;SDS011;62348;51.412;5.436;2023-02-28T01:13:03;11.38;;;7.35;;
73980;SDS011;62348;51.412;5.436;2023-02-28T01:15:28;10.55;;;7.65;;
73980;SDS011;62348;51.412;5.436;2023-02-28T01:17:54;8.32;;;6.60;;
73980;SDS011;62348;51.412;5.436;2023-02-28T01:20:19;11.00;;;7.78;;
73980;SDS011;62348;51.412;5.436;2023-02-28T01:22:45;11.13;;;7.55;;
73980;SDS011;62348;51.412;5.436;2023-02-28T01:25:14;10.27;;;7.53;;
73980;SDS011;62348;51.412;5.436;2023-02-28T01:27:40;8.48;;;7.18;;
73980;SDS011;62348;51.412;5.436;2023-02-28T01:30:06;10.80;;;7.78;;
73980;SDS011;62348;51.412;5.436;2023-02-28T01:32:33;11.82;;;8.07;;
73980;SDS011;62348;51.412;5.436;2023-02-28T01:34:58;10.98;;;8.13;;
73980;SDS011;62348;51.412;5.436;2023-02-28T01:37:23;11.20;;;8.20;;
73980;SDS011;62348;51.412;5.436;2023-02-28T01:39:49;17.45;;;8.18;;
73980;SDS011;62348;51.412;5.436;2023-02-28T01:42:14;9.98;;;7.85;;
73980;SDS011;62348;51.412;5.436;2023-02-28T01:50:19;15.25;;;7.25;;
73980;SDS011;62348;51.412;5.436;2023-02-28T01:52:47;8.50;;;6.90;;
73980;SDS011;62348;51.412;5.436;2023-02-28T01:55:14;12.25;;;7.75;;
73980;SDS011;62348;51.412;5.436;2023-02-28T01:57:45;9.70;;;7.53;;
73980;SDS011;62348;51.412;5.436;2023-02-28T02:00:15;10.40;;;7.82;;
73980;SDS011;62348;51.412;5.436;2023-02-28T02:02:45;9.70;;;7.65;;
73980;SDS011;62348;51.412;5.436;2023-02-28T02:05:18;10.02;;;7.75;;
73980;SDS011;62348;51.412;5.436;2023-02-28T02:07:57;11.80;;;8.00;;
73980;SDS011;62348;51.412;5.436;2023-02-28T02:10:31;12.95;;;7.63;;
73980;SDS011;62348;51.412;5.436;2023-02-28T02:13:04;10.57;;;7.18;;
73980;SDS011;62348;51.412;5.436;2023-02-28T02:15:54;9.38;;;6.72;;
73980;SDS011;62348;51.412;5.436;2023-02-28T02:18:34;10.98;;;7.05;;
73980;SDS011;62348;51.412;5.436;2023-02-28T02:29:36;10.35;;;7.43;;
73980;SDS011;62348;51.412;5.436;2023-02-28T02:38:01;13.15;;;7.60;;
73980;SDS011;62348;51.412;5.436;2023-02-28T02:40:47;12.95;;;8.23;;
73980;SDS011;62348;51.412;5.436;2023-02-28T02:43:19;13.85;;;7.78;;
73980;SDS011;62348;51.412;5.436;2023-02-28T02:45:59;12.52;;;7.82;;
73980;SDS011;62348;51.412;5.436;2023-02-28T02:48:30;10.10;;;7.43;;
73980;SDS011;62348;51.412;5.436;2023-02-28T02:50:59;10.70;;;8.25;;
73980;SDS011;62348;51.412;5.436;2023-02-28T02:53:36;11.40;;;7.95;;
73980;SDS011;62348;51.412;5.436;2023-02-28T02:56:06;12.23;;;8.05;;
73980;SDS011;62348;51.412;5.436;2023-02-28T02:58:34;9.45;;;7.40;;
73980;SDS011;62348;51.412;5.436;2023-02-28T03:01:07;10.27;;;8.05;;
73980;SDS011;62348;51.412;5.436;2023-02-28T03:03:35;14.75;;;8.27;;
73980;SDS011;62348;51.412;5.436;2023-02-28T03:06:02;12.63;;;7.50;;
73980;SDS011;62348;51.412;5.436;2023-02-28T03:08:29;10.75;;;7.53;;
73980;SDS011;62348;51.412;5.436;2023-02-28T03:11:03;9.02;;;7.43;;
73980;SDS011;62348;51.412;5.436;2023-02-28T03:13:41;11.68;;;7.72;;
73980;SDS011;62348;51.412;5.436;2023-02-28T03:24:27;11.95;;;7.07;;
73980;SDS011;62348;51.412;5.436;2023-02-28T03:26:55;11.55;;;6.93;;
73980;SDS011;62348;51.412;5.436;2023-02-28T03:29:38;10.27;;;7.05;;
73980;SDS011;62348;51.412;5.436;2023-02-28T03:32:12;8.52;;;6.82;;
73980;SDS011;62348;51.412;5.436;2023-02-28T03:34:53;8.55;;;6.28;;
73980;SDS011;62348;51.412;5.436;2023-02-28T03:37:21;10.75;;;6.45;;
73980;SDS011;62348;51.412;5.436;2023-02-28T03:39:50;8.55;;;6.88;;
73980;SDS011;62348;51.412;5.436;2023-02-28T03:42:21;8.30;;;6.20;;
73980;SDS011;62348;51.412;5.436;2023-02-28T03:45:03;10.38;;;6.57;;
73980;SDS011;62348;51.412;5.436;2023-02-28T03:47:35;10.63;;;6.60;;
73980;SDS011;62348;51.412;5.436;2023-02-28T03:50:08;11.13;;;6.72;;
73980;SDS011;62348;51.412;5.436;2023-02-28T03:52:47;10.18;;;7.18;;
73980;SDS011;62348;51.412;5.436;2023-02-28T03:55:27;13.30;;;7.15;;
73980;SDS011;62348;51.412;5.436;2023-02-28T03:57:59;12.88;;;7.40;;
73980;SDS011;62348;51.412;5.436;2023-02-28T04:00:31;10.57;;;7.65;;
73980;SDS011;62348;51.412;5.436;2023-02-28T04:03:00;10.52;;;6.75;;
73980;SDS011;62348;51.412;5.436;2023-02-28T04:05:26;10.15;;;6.45;;
73980;SDS011;62348;51.412;5.436;2023-02-28T04:07:52;9.43;;;6.97;;
73980;SDS011;62348;51.412;5.436;2023-02-28T04:10:19;9.52;;;6.38;;
73980;SDS011;62348;51.412;5.436;2023-02-28T04:12:44;9.20;;;6.38;;
73980;SDS011;62348;51.412;5.436;2023-02-28T04:15:10;12.07;;;7.28;;
73980;SDS011;62348;51.412;5.436;2023-02-28T04:17:36;12.05;;;7.18;;
73980;SDS011;62348;51.412;5.436;2023-02-28T04:20:02;9.60;;;6.45;;
73980;SDS011;62348;51.412;5.436;2023-02-28T04:22:28;10.23;;;6.88;;
73980;SDS011;62348;51.412;5.436;2023-02-28T04:24:54;10.40;;;6.75;;
73980;SDS011;62348;51.412;5.436;2023-02-28T04:27:20;9.40;;;6.78;;
73980;SDS011;62348;51.412;5.436;2023-02-28T04:29:45;10.93;;;6.95;;
73980;SDS011;62348;51.412;5.436;2023-02-28T04:32:11;10.68;;;6.75;;
73980;SDS011;62348;51.412;5.436;2023-02-28T04:34:37;8.40;;;5.90;;
73980;SDS011;62348;51.412;5.436;2023-02-28T04:37:03;8.10;;;6.10;;
73980;SDS011;62348;51.412;5.436;2023-02-28T04:39:29;9.75;;;5.95;;
73980;SDS011;62348;51.412;5.436;2023-02-28T04:41:54;10.15;;;6.57;;
73980;SDS011;62348;51.412;5.436;2023-02-28T04:44:20;9.63;;;6.32;;
73980;SDS011;62348;51.412;5.436;2023-02-28T04:46:47;9.45;;;6.25;;
73980;SDS011;62348;51.412;5.436;2023-02-28T04:49:14;9.30;;;6.80;;
73980;SDS011;62348;51.412;5.436;2023-02-28T04:51:40;9.48;;;6.28;;
73980;SDS011;62348;51.412;5.436;2023-02-28T04:54:06;10.63;;;6.43;;
73980;SDS011;62348;51.412;5.436;2023-02-28T04:56:31;9.48;;;6.35;;
73980;SDS011;62348;51.412;5.436;2023-02-28T04:58:57;9.15;;;5.80;;
73980;SDS011;62348;51.412;5.436;2023-02-28T05:01:23;8.02;;;6.15;;
73980;SDS011;62348;51.412;5.436;2023-02-28T05:03:53;8.57;;;5.75;;
73980;SDS011;62348;51.412;5.436;2023-02-28T05:06:20;8.73;;;5.82;;
73980;SDS011;62348;51.412;5.436;2023-02-28T05:08:48;9.88;;;6.18;;
73980;SDS011;62348;51.412;5.436;2023-02-28T05:11:21;9.93;;;5.88;;
73980;SDS011;62348;51.412;5.436;2023-02-28T05:13:47;9.50;;;6.38;;
73980;SDS011;62348;51.412;5.436;2023-02-28T05:16:12;8.93;;;6.25;;
73980;SDS011;62348;51.412;5.436;2023-02-28T05:18:38;8.15;;;5.68;;
73980;SDS011;62348;51.412;5.436;2023-02-28T05:21:04;9.43;;;5.88;;
73980;SDS011;62348;51.412;5.436;2023-02-28T05:23:29;8.50;;;6.05;;
73980;SDS011;62348;51.412;5.436;2023-02-28T05:25:55;9.70;;;5.82;;
73980;SDS011;62348;51.412;5.436;2023-02-28T05:28:21;9.75;;;5.95;;
73980;SDS011;62348;51.412;5.436;2023-02-28T05:30:47;11.15;;;6.50;;
73980;SDS011;62348;51.412;5.436;2023-02-28T05:33:13;7.75;;;6.13;;
73980;SDS011;62348;51.412;5.436;2023-02-28T05:35:39;12.43;;;6.63;;
73980;SDS011;62348;51.412;5.436;2023-02-28T05:38:05;11.25;;;5.25;;
73980;SDS011;62348;51.412;5.436;2023-02-28T05:40:30;12.80;;;5.75;;
73980;SDS011;62348;51.412;5.436;2023-02-28T05:42:56;8.10;;;5.50;;
73980;SDS011;62348;51.412;5.436;2023-02-28T05:45:21;7.30;;;5.75;;
73980;SDS011;62348;51.412;5.436;2023-02-28T05:47:47;9.77;;;6.00;;
73980;SDS011;62348;51.412;5.436;2023-02-28T05:50:12;10.40;;;6.97;;
73980;SDS011;62348;51.412;5.436;2023-02-28T05:52:37;7.68;;;6.15;;
73980;SDS011;62348;51.412;5.436;2023-02-28T05:55:03;7.88;;;5.55;;
73980;SDS011;62348;51.412;5.436;2023-02-28T05:57:31;8.65;;;5.63;;
73980;SDS011;62348;51.412;5.436;2023-02-28T05:59:56;8.50;;;5.68;;
73980;SDS011;62348;51.412;5.436;2023-02-28T06:02:22;9.52;;;6.80;;
73980;SDS011;62348;51.412;5.436;2023-02-28T06:04:47;11.98;;;6.70;;
73980;SDS011;62348;51.412;5.436;2023-02-28T06:07:13;9.95;;;5.70;;
73980;SDS011;62348;51.412;5.436;2023-02-28T06:09:38;9.85;;;6.38;;
73980;SDS011;62348;51.412;5.436;2023-02-28T06:12:04;7.50;;;5.25;;
73980;SDS011;62348;51.412;5.436;2023-02-28T06:14:33;7.75;;;5.57;;
73980;SDS011;62348;51.412;5.436;2023-02-28T06:16:59;7.28;;;5.50;;
73980;SDS011;62348;51.412;5.436;2023-02-28T06:19:25;8.73;;;6.03;;
73980;SDS011;62348;51.412;5.436;2023-02-28T06:21:51;7.93;;;5.47;;
73980;SDS011;62348;51.412;5.436;2023-02-28T06:24:18;11.25;;;7.13;;
73980;SDS011;62348;51.412;5.436;2023-02-28T06:26:44;7.72;;;5.47;;
73980;SDS011;62348;51.412;5.436;2023-02-28T06:29:09;7.63;;;5.00;;
73980;SDS011;62348;51.412;5.436;2023-02-28T06:31:35;7.30;;;5.22;;
73980;SDS011;62348;51.412;5.436;2023-02-28T06:34:00;8.27;;;5.50;;
73980;SDS011;62348;51.412;5.436;2023-02-28T06:36:26;7.47;;;4.78;;
73980;SDS011;62348;51.412;5.436;2023-02-28T06:38:51;8.38;;;5.78;;
73980;SDS011;62348;51.412;5.436;2023-02-28T06:41:20;7.75;;;5.88;;
73980;SDS011;62348;51.412;5.436;2023-02-28T06:43:49;6.57;;;5.25;;
73980;SDS011;62348;51.412;5.436;2023-02-28T06:46:15;10.57;;;5.20;;
73980;SDS011;62348;51.412;5.436;2023-02-28T06:48:42;8.25;;;5.13;;
73980;SDS011;62348;51.412;5.436;2023-02-28T06:51:09;7.53;;;5.30;;
73980;SDS011;62348;51.412;5.436;2023-02-28T06:53:38;9.18;;;5.18;;
73980;SDS011;62348;51.412;5.436;2023-02-28T06:56:04;9.00;;;4.47;;
73980;SDS011;62348;51.412;5.436;2023-02-28T06:58:31;6.80;;;4.88;;
73980;SDS011;62348;51.412;5.436;2023-02-28T07:00:56;5.22;;;4.25;;
73980;SDS011;62348;51.412;5.436;2023-02-28T07:03:22;9.93;;;4.70;;
73980;SDS011;62348;51.412;5.436;2023-02-28T07:05:48;7.03;;;4.43;;
73980;SDS011;62348;51.412;5.436;2023-02-28T07:08:13;6.05;;;4.03;;
73980;SDS011;62348;51.412;5.436;2023-02-28T07:10:39;7.72;;;4.78;;
73980;SDS011;62348;51.412;5.436;2023-02-28T07:13:05;5.85;;;3.92;;
73980;SDS011;62348;51.412;5.436;2023-02-28T07:15:31;9.77;;;4.20;;
73980;SDS011;62348;51.412;5.436;2023-02-28T07:17:56;7.70;;;4.20;;
73980;SDS011;62348;51.412;5.436;2023-02-28T07:20:22;6.13;;;3.97;;
73980;SDS011;62348;51.412;5.436;2023-02-28T07:22:48;5.13;;;3.78;;
73980;SDS011;62348;51.412;5.436;2023-02-28T07:25:20;5.40;;;3.65;;
73980;SDS011;62348;51.412;5.436;2023-02-28T07:27:46;5.93;;;4.38;;
73980;SDS011;62348;51.412;5.436;2023-02-28T07:30:12;5.40;;;4.38;;
73980;SDS011;62348;51.412;5.436;2023-02-28T07:32:37;5.88;;;3.90;;
73980;SDS011;62348;51.412;5.436;2023-02-28T07:35:03;7.88;;;3.70;;
73980;SDS011;62348;51.412;5.436;2023-02-28T07:37:29;4.93;;;3.97;;
73980;SDS011;62348;51.412;5.436;2023-02-28T07:39:56;8.32;;;4.20;;
73980;SDS011;62348;51.412;5.436;2023-02-28T07:42:22;4.47;;;3.60;;
73980;SDS011;62348;51.412;5.436;2023-02-28T07:44:48;6.13;;;4.10;;
73980;SDS011;62348;51.412;5.436;2023-02-28T07:47:13;6.32;;;4.03;;
73980;SDS011;62348;51.412;5.436;2023-02-28T07:49:38;6.65;;;3.97;;
73980;SDS011;62348;51.412;5.436;2023-02-28T07:52:04;4.85;;;4.03;;
73980;SDS011;62348;51.412;5.436;2023-02-28T07:54:31;4.65;;;3.13;;
73980;SDS011;62348;51.412;5.436;2023-02-28T07:56:57;7.88;;;3.60;;
73980;SDS011;62348;51.412;5.436;2023-02-28T07:59:22;3.45;;;3.00;;
73980;SDS011;62348;51.412;5.436;2023-02-28T08:01:48;6.40;;;3.03;;
73980;SDS011;62348;51.412;5.436;2023-02-28T08:04:15;4.93;;;3.05;;
73980;SDS011;62348;51.412;5.436;2023-02-28T08:06:41;6.40;;;3.35;;
73980;SDS011;62348;51.412;5.436;2023-02-28T08:09:07;5.20;;;3.28;;
73980;SDS011;62348;51.412;5.436;2023-02-28T08:11:32;4.55;;;3.17;;
73980;SDS011;62348;51.412;5.436;2023-02-28T08:13:58;4.82;;;2.85;;
73980;SDS011;62348;51.412;5.436;2023-02-28T08:16:23;4.85;;;3.13;;
73980;SDS011;62348;51.412;5.436;2023-02-28T08:18:49;5.18;;;3.17;;
73980;SDS011;62348;51.412;5.436;2023-02-28T08:21:17;5.20;;;3.13;;
73980;SDS011;62348;51.412;5.436;2023-02-28T08:23:43;3.72;;;2.97;;
73980;SDS011;62348;51.412;5.436;2023-02-28T08:26:08;5.57;;;3.10;;
73980;SDS011;62348;51.412;5.436;2023-02-28T08:28:34;3.22;;;2.78;;
73980;SDS011;62348;51.412;5.436;2023-02-28T08:30:59;7.93;;;2.97;;
73980;SDS011;62348;51.412;5.436;2023-02-28T08:33:25;5.32;;;2.47;;
73980;SDS011;62348;51.412;5.436;2023-02-28T08:35:55;4.22;;;2.97;;
73980;SDS011;62348;51.412;5.436;2023-02-28T08:38:21;4.07;;;2.30;;
73980;SDS011;62348;51.412;5.436;2023-02-28T08:40:48;3.58;;;2.38;;
73980;SDS011;62348;51.412;5.436;2023-02-28T08:43:13;3.22;;;2.25;;
73980;SDS011;62348;51.412;5.436;2023-02-28T08:45:38;3.28;;;1.90;;
73980;SDS011;62348;51.412;5.436;2023-02-28T08:48:04;5.35;;;2.70;;
73980;SDS011;62348;51.412;5.436;2023-02-28T08:50:29;5.32;;;2.67;;
73980;SDS011;62348;51.412;5.436;2023-02-28T08:52:55;5.35;;;2.28;;
73980;SDS011;62348;51.412;5.436;2023-02-28T08:55:20;3.33;;;2.03;;
73980;SDS011;62348;51.412;5.436;2023-02-28T08:57:45;3.25;;;2.90;;
73980;SDS011;62348;51.412;5.436;2023-02-28T09:00:11;5.85;;;2.30;;
73980;SDS011;62348;51.412;5.436;2023-02-28T09:02:38;3.35;;;2.70;;
73980;SDS011;62348;51.412;5.436;2023-02-28T09:05:04;2.90;;;2.25;;
73980;SDS011;62348;51.412;5.436;2023-02-28T09:07:30;2.83;;;2.10;;
73980;SDS011;62348;51.412;5.436;2023-02-28T09:09:55;4.10;;;2.35;;
73980;SDS011;62348;51.412;5.436;2023-02-28T09:12:22;2.58;;;2.10;;
73980;SDS011;62348;51.412;5.436;2023-02-28T09:14:49;4.47;;;2.20;;
73980;SDS011;62348;51.412;5.436;2023-02-28T09:17:15;1.88;;;1.75;;
73980;SDS011;62348;51.412;5.436;2023-02-28T09:19:40;2.38;;;2.17;;
73980;SDS011;62348;51.412;5.436;2023-02-28T09:22:06;2.20;;;1.60;;
73980;SDS011;62348;51.412;5.436;2023-02-28T09:24:31;1.85;;;1.75;;
73980;SDS011;62348;51.412;5.436;2023-02-28T09:26:57;2.72;;;1.73;;
73980;SDS011;62348;51.412;5.436;2023-02-28T09:29:22;2.58;;;1.83;;
73980;SDS011;62348;51.412;5.436;2023-02-28T09:31:48;2.03;;;1.92;;
73980;SDS011;62348;51.412;5.436;2023-02-28T09:34:13;2.70;;;2.30;;
73980;SDS011;62348;51.412;5.436;2023-02-28T09:36:38;1.75;;;1.45;;
73980;SDS011;62348;51.412;5.436;2023-02-28T09:39:04;3.05;;;1.77;;
73980;SDS011;62348;51.412;5.436;2023-02-28T09:41:32;2.65;;;1.90;;
73980;SDS011;62348;51.412;5.436;2023-02-28T09:44:05;3.80;;;2.28;;
73980;SDS011;62348;51.412;5.436;2023-02-28T09:46:37;3.22;;;1.58;;
73980;SDS011;62348;51.412;5.436;2023-02-28T09:49:16;1.70;;;1.60;;
73980;SDS011;62348;51.412;5.436;2023-02-28T09:51:53;2.08;;;1.63;;
73980;SDS011;62348;51.412;5.436;2023-02-28T09:54:26;2.55;;;1.85;;
73980;SDS011;62348;51.412;5.436;2023-02-28T09:56:58;2.65;;;1.95;;
73980;SDS011;62348;51.412;5.436;2023-02-28T09:59:36;2.13;;;1.90;;
73980;SDS011;62348;51.412;5.436;2023-02-28T10:04:50;3.47;;;1.83;;
73980;SDS011;62348;51.412;5.436;2023-02-28T10:07:29;2.30;;;1.60;;
73980;SDS011;62348;51.412;5.436;2023-02-28T10:10:42;2.92;;;1.85;;
73980;SDS011;62348;51.412;5.436;2023-02-28T10:13:04;2.90;;;1.42;;
73980;SDS011;62348;51.412;5.436;2023-02-28T10:15:37;3.25;;;1.60;;
73980;SDS011;62348;51.412;5.436;2023-02-28T10:18:04;1.85;;;1.40;;
73980;SDS011;62348;51.412;5.436;2023-02-28T10:20:37;1.92;;;1.75;;
73980;SDS011;62348;51.412;5.436;2023-02-28T10:25:33;4.88;;;1.73;;
73980;SDS011;62348;51.412;5.436;2023-02-28T10:28:04;2.90;;;1.83;;
73980;SDS011;62348;51.412;5.436;2023-02-28T10:30:44;2.45;;;1.85;;
73980;SDS011;62348;51.412;5.436;2023-02-28T10:33:23;3.15;;;2.00;;
73980;SDS011;62348;51.412;5.436;2023-02-28T10:35:50;3.75;;;1.95;;
73980;SDS011;62348;51.412;5.436;2023-02-28T10:38:26;2.30;;;1.90;;
73980;SDS011;62348;51.412;5.436;2023-02-28T10:41:03;2.15;;;1.92;;
73980;SDS011;62348;51.412;5.436;2023-02-28T10:43:31;1.92;;;1.67;;
73980;SDS011;62348;51.412;5.436;2023-02-28T10:53:16;2.30;;;1.80;;
73980;SDS011;62348;51.412;5.436;2023-02-28T10:58:42;2.25;;;1.58;;
73980;SDS011;62348;51.412;5.436;2023-02-28T11:01:26;4.20;;;1.70;;
73980;SDS011;62348;51.412;5.436;2023-02-28T11:03:59;2.38;;;1.73;;
73980;SDS011;62348;51.412;5.436;2023-02-28T11:06:29;3.33;;;1.42;;
73980;SDS011;62348;51.412;5.436;2023-02-28T11:08:57;2.33;;;2.10;;
73980;SDS011;62348;51.412;5.436;2023-02-28T11:11:26;1.95;;;1.60;;
73980;SDS011;62348;51.412;5.436;2023-02-28T11:13:58;2.00;;;1.77;;
73980;SDS011;62348;51.412;5.436;2023-02-28T11:16:36;2.47;;;1.58;;
73980;SDS011;62348;51.412;5.436;2023-02-28T11:19:03;2.50;;;1.70;;
73980;SDS011;62348;51.412;5.436;2023-02-28T11:21:33;3.58;;;1.95;;
73980;SDS011;62348;51.412;5.436;2023-02-28T11:26:53;2.40;;;2.20;;
73980;SDS011;62348;51.412;5.436;2023-02-28T11:29:32;4.22;;;2.25;;
73980;SDS011;62348;51.412;5.436;2023-02-28T11:32:13;2.25;;;1.58;;
73980;SDS011;62348;51.412;5.436;2023-02-28T11:34:44;3.33;;;2.13;;
73980;SDS011;62348;51.412;5.436;2023-02-28T11:37:18;3.17;;;1.92;;
73980;SDS011;62348;51.412;5.436;2023-02-28T11:39:44;2.10;;;1.80;;
73980;SDS011;62348;51.412;5.436;2023-02-28T11:42:18;2.47;;;2.08;;
73980;SDS011;62348;51.412;5.436;2023-02-28T11:52:38;2.58;;;1.83;;
73980;SDS011;62348;51.412;5.436;2023-02-28T11:55:14;2.35;;;2.00;;
73980;SDS011;62348;51.412;5.436;2023-02-28T12:00:27;3.88;;;2.47;;
73980;SDS011;62348;51.412;5.436;2023-02-28T12:03:17;3.30;;;2.30;;
73980;SDS011;62348;51.412;5.436;2023-02-28T12:19:41;3.03;;;1.77;;
73980;SDS011;62348;51.412;5.436;2023-02-28T12:22:22;3.25;;;1.92;;
73980;SDS011;62348;51.412;5.436;2023-02-28T12:25:04;3.15;;;1.80;;
73980;SDS011;62348;51.412;5.436;2023-02-28T12:27:43;2.72;;;2.40;;
73980;SDS011;62348;51.412;5.436;2023-02-28T12:30:19;3.50;;;2.38;;
73980;SDS011;62348;51.412;5.436;2023-02-28T12:32:56;2.53;;;2.22;;
73980;SDS011;62348;51.412;5.436;2023-02-28T12:35:32;3.83;;;2.40;;
73980;SDS011;62348;51.412;5.436;2023-02-28T12:38:05;6.90;;;2.40;;
73980;SDS011;62348;51.412;5.436;2023-02-28T12:43:12;2.75;;;2.38;;
73980;SDS011;62348;51.412;5.436;2023-02-28T12:45:44;3.30;;;2.20;;
73980;SDS011;62348;51.412;5.436;2023-02-28T12:48:18;3.33;;;2.13;;
73980;SDS011;62348;51.412;5.436;2023-02-28T12:50:49;3.28;;;2.10;;
73980;SDS011;62348;51.412;5.436;2023-02-28T12:56:13;3.45;;;2.50;;
73980;SDS011;62348;51.412;5.436;2023-02-28T12:58:50;3.80;;;2.20;;
73980;SDS011;62348;51.412;5.436;2023-02-28T13:09:51;4.10;;;2.42;;
73980;SDS011;62348;51.412;5.436;2023-02-28T13:12:21;3.80;;;2.22;;
73980;SDS011;62348;51.412;5.436;2023-02-28T13:14:48;2.83;;;2.15;;
73980;SDS011;62348;51.412;5.436;2023-02-28T13:17:18;3.78;;;2.70;;
73980;SDS011;62348;51.412;5.436;2023-02-28T13:19:55;2.92;;;2.30;;
73980;SDS011;62348;51.412;5.436;2023-02-28T13:27:46;4.03;;;2.22;;
73980;SDS011;62348;51.412;5.436;2023-02-28T13:36:39;2.95;;;2.13;;
73980;SDS011;62348;51.412;5.436;2023-02-28T13:38:57;3.08;;;2.60;;
73980;SDS011;62348;51.412;5.436;2023-02-28T13:44:07;2.70;;;2.30;;
73980;SDS011;62348;51.412;5.436;2023-02-28T13:52:02;6.40;;;2.95;;
73980;SDS011;62348;51.412;5.436;2023-02-28T13:58:04;3.40;;;2.33;;
73980;SDS011;62348;51.412;5.436;2023-02-28T14:05:34;3.03;;;2.65;;
73980;SDS011;62348;51.412;5.436;2023-02-28T14:08:04;2.63;;;2.42;;
73980;SDS011;62348;51.412;5.436;2023-02-28T14:10:39;3.83;;;2.67;;
73980;SDS011;62348;51.412;5.436;2023-02-28T14:13:13;4.13;;;2.35;;
73980;SDS011;62348;51.412;5.436;2023-02-28T14:15:58;3.30;;;2.45;;
73980;SDS011;62348;51.412;5.436;2023-02-28T14:21:43;4.18;;;2.50;;
73980;SDS011;62348;51.412;5.436;2023-02-28T14:30:36;3.35;;;2.45;;
73980;SDS011;62348;51.412;5.436;2023-02-28T14:36:06;4.88;;;2.85;;
73980;SDS011;62348;51.412;5.436;2023-02-28T14:38:35;3.75;;;2.63;;
73980;SDS011;62348;51.412;5.436;2023-02-28T14:41:12;4.28;;;3.72;;
73980;SDS011;62348;51.412;5.436;2023-02-28T14:43:49;4.45;;;3.05;;
73980;SDS011;62348;51.412;5.436;2023-02-28T14:46:20;3.75;;;2.78;;
73980;SDS011;62348;51.412;5.436;2023-02-28T14:48:46;3.28;;;2.90;;
73980;SDS011;62348;51.412;5.436;2023-02-28T14:51:17;4.03;;;2.63;;
73980;SDS011;62348;51.412;5.436;2023-02-28T14:53:48;3.30;;;3.00;;
73980;SDS011;62348;51.412;5.436;2023-02-28T14:56:20;3.75;;;3.45;;
73980;SDS011;62348;51.412;5.436;2023-02-28T14:58:51;3.00;;;2.70;;
73980;SDS011;62348;51.412;5.436;2023-02-28T15:01:19;3.40;;;3.10;;
73980;SDS011;62348;51.412;5.436;2023-02-28T15:03:47;3.74;;;3.22;;
73980;SDS011;62348;51.412;5.436;2023-02-28T15:06:14;3.97;;;3.10;;
73980;SDS011;62348;51.412;5.436;2023-02-28T15:08:42;6.22;;;3.47;;
73980;SDS011;62348;51.412;5.436;2023-02-28T15:11:11;3.22;;;2.92;;
73980;SDS011;62348;51.412;5.436;2023-02-28T15:13:40;3.80;;;3.40;;
73980;SDS011;62348;51.412;5.436;2023-02-28T15:16:20;3.55;;;3.20;;
73980;SDS011;62348;51.412;5.436;2023-02-28T15:19:00;4.28;;;3.00;;
73980;SDS011;62348;51.412;5.436;2023-02-28T15:21:31;4.60;;;3.00;;
73980;SDS011;62348;51.412;5.436;2023-02-28T15:26:39;4.20;;;2.83;;
73980;SDS011;62348;51.412;5.436;2023-02-28T15:29:13;4.72;;;3.17;;
73980;SDS011;62348;51.412;5.436;2023-02-28T15:31:46;3.13;;;2.83;;
73980;SDS011;62348;51.412;5.436;2023-02-28T15:36:52;4.32;;;3.05;;
73980;SDS011;62348;51.412;5.436;2023-02-28T15:39:27;3.50;;;2.92;;
73980;SDS011;62348;51.412;5.436;2023-02-28T15:42:10;3.70;;;2.80;;
73980;SDS011;62348;51.412;5.436;2023-02-28T15:44:43;3.63;;;2.75;;
73980;SDS011;62348;51.412;5.436;2023-02-28T15:47:15;4.55;;;3.05;;
73980;SDS011;62348;51.412;5.436;2023-02-28T15:49:45;6.30;;;2.90;;
73980;SDS011;62348;51.412;5.436;2023-02-28T15:52:12;3.53;;;3.20;;
73980;SDS011;62348;51.412;5.436;2023-02-28T15:54:44;6.20;;;3.05;;
73980;SDS011;62348;51.412;5.436;2023-02-28T15:57:15;4.07;;;2.78;;
73980;SDS011;62348;51.412;5.436;2023-02-28T15:59:49;3.45;;;3.05;;
73980;SDS011;62348;51.412;5.436;2023-02-28T16:02:21;4.82;;;2.80;;
73980;SDS011;62348;51.412;5.436;2023-02-28T16:04:58;3.42;;;2.88;;
73980;SDS011;62348;51.412;5.436;2023-02-28T16:07:24;4.22;;;3.10;;
73980;SDS011;62348;51.412;5.436;2023-02-28T16:09:50;3.55;;;2.75;;
73980;SDS011;62348;51.412;5.436;2023-02-28T16:12:16;4.43;;;2.95;;
73980;SDS011;62348;51.412;5.436;2023-02-28T16:14:42;4.43;;;2.78;;
73980;SDS011;62348;51.412;5.436;2023-02-28T16:17:20;3.38;;;2.88;;
73980;SDS011;62348;51.412;5.436;2023-02-28T16:19:47;3.42;;;3.05;;
73980;SDS011;62348;51.412;5.436;2023-02-28T16:22:13;4.07;;;3.35;;
73980;SDS011;62348;51.412;5.436;2023-02-28T16:24:38;3.53;;;2.67;;
73980;SDS011;62348;51.412;5.436;2023-02-28T16:27:05;3.80;;;2.90;;
73980;SDS011;62348;51.412;5.436;2023-02-28T16:29:32;3.40;;;2.92;;
73980;SDS011;62348;51.412;5.436;2023-02-28T16:32:03;4.75;;;3.10;;
73980;SDS011;62348;51.412;5.436;2023-02-28T16:34:30;7.40;;;2.80;;
73980;SDS011;62348;51.412;5.436;2023-02-28T16:36:56;6.70;;;3.53;;
73980;SDS011;62348;51.412;5.436;2023-02-28T16:39:21;4.55;;;2.75;;
73980;SDS011;62348;51.412;5.436;2023-02-28T16:41:47;4.75;;;3.08;;
73980;SDS011;62348;51.412;5.436;2023-02-28T16:46:52;4.03;;;3.40;;
73980;SDS011;62348;51.412;5.436;2023-02-28T16:49:18;5.00;;;3.65;;
73980;SDS011;62348;51.412;5.436;2023-02-28T16:51:44;4.63;;;3.20;;
73980;SDS011;62348;51.412;5.436;2023-02-28T16:54:09;8.60;;;3.30;;
73980;SDS011;62348;51.412;5.436;2023-02-28T16:56:34;6.03;;;3.38;;
73980;SDS011;62348;51.412;5.436;2023-02-28T16:59:00;3.33;;;2.80;;
73980;SDS011;62348;51.412;5.436;2023-02-28T17:01:26;6.47;;;3.15;;
73980;SDS011;62348;51.412;5.436;2023-02-28T17:03:53;4.63;;;2.90;;
73980;SDS011;62348;51.412;5.436;2023-02-28T17:06:23;13.98;;;8.07;;
73980;SDS011;62348;51.412;5.436;2023-02-28T17:08:53;12.85;;;10.55;;